createdAt,value
2019-04-02T00:01:45.238Z,0.70
2019-04-02T00:04:14.710Z,2.43
2019-04-02T00:06:43.370Z,0.67
2019-04-02T00:09:12.124Z,2.30
2019-04-02T00:11:40.409Z,1.30
2019-04-02T00:14:08.685Z,2.00
2019-04-02T00:16:37.324Z,0.97
2019-04-02T00:19:06.564Z,1.07
2019-04-02T00:21:35.715Z,1.17
2019-04-02T00:24:04.302Z,1.40
2019-04-02T00:26:32.572Z,1.90
2019-04-02T00:29:00.826Z,2.03
2019-04-02T00:31:29.448Z,1.67
2019-04-02T00:33:57.711Z,2.60
2019-04-02T00:36:26.284Z,3.07
2019-04-02T00:38:54.543Z,2.13
2019-04-02T00:41:22.818Z,0.87
2019-04-02T00:43:51.081Z,1.83
2019-04-02T00:46:20.244Z,1.07
2019-04-02T00:48:49.745Z,2.30
2019-04-02T00:51:18.027Z,1.73
2019-04-02T00:53:46.306Z,1.27
2019-04-02T00:56:14.888Z,0.80
2019-04-02T00:58:43.554Z,3.07
2019-04-02T01:01:11.824Z,1.67
2019-04-02T01:03:40.272Z,0.93
2019-04-02T01:06:09.818Z,0.70
2019-04-02T01:08:38.097Z,1.83
2019-04-02T01:11:06.363Z,2.57
2019-04-02T01:13:34.640Z,2.30
2019-04-02T01:16:02.916Z,0.63
2019-04-02T01:18:31.191Z,1.23
2019-04-02T01:20:59.454Z,4.83
2019-04-02T01:23:27.740Z,0.73
2019-04-02T01:25:56.126Z,1.40
2019-04-02T01:28:25.047Z,1.87
2019-04-02T01:30:53.311Z,1.90
2019-04-02T01:33:21.892Z,1.93
2019-04-02T01:35:50.177Z,1.33
2019-04-02T01:38:18.447Z,1.27
2019-04-02T01:40:46.723Z,1.63
2019-04-02T01:43:14.998Z,1.50
2019-04-02T01:45:43.259Z,2.40
2019-04-02T01:48:12.264Z,1.20
2019-04-02T01:50:41.891Z,1.93
2019-04-02T01:53:10.238Z,1.30
2019-04-02T01:55:38.503Z,1.40
2019-04-02T01:58:07.139Z,1.80
2019-04-02T02:00:35.410Z,0.60
2019-04-02T02:03:03.674Z,1.70
2019-04-02T02:05:32.252Z,2.13
2019-04-02T02:08:00.859Z,1.70
2019-04-02T02:10:29.130Z,2.00
2019-04-02T02:12:58.370Z,1.53
2019-04-02T02:15:26.935Z,0.83
2019-04-02T02:17:55.232Z,1.50
2019-04-02T02:20:23.491Z,1.60
2019-04-02T02:22:51.743Z,0.90
2019-04-02T02:25:20.020Z,1.73
2019-04-02T02:27:48.282Z,2.60
2019-04-02T02:30:18.024Z,1.37
2019-04-02T02:32:46.289Z,2.27
2019-04-02T02:35:14.559Z,0.73
2019-04-02T02:37:43.136Z,1.27
2019-04-02T02:40:48.039Z,2.33
2019-04-02T02:43:16.301Z,1.17
2019-04-02T02:45:44.571Z,3.07
2019-04-02T02:48:13.123Z,0.60
2019-04-02T02:50:41.383Z,0.93
2019-04-02T02:53:09.651Z,3.57
2019-04-02T02:55:37.936Z,0.53
2019-04-02T02:58:06.665Z,1.03
2019-04-02T03:00:35.221Z,0.70
2019-04-02T03:03:03.493Z,1.13
2019-04-02T03:05:32.237Z,0.80
2019-04-02T03:08:02.856Z,1.23
2019-04-02T03:10:31.409Z,0.70
2019-04-02T03:12:59.744Z,0.60
2019-04-02T03:15:28.396Z,0.50
2019-04-02T03:17:56.975Z,1.37
2019-04-02T03:20:25.251Z,1.80
2019-04-02T03:22:53.516Z,1.07
2019-04-02T03:25:22.405Z,3.20
2019-04-02T03:27:53.267Z,1.30
2019-04-02T03:30:27.845Z,2.20
2019-04-02T03:32:55.912Z,0.90
2019-04-02T03:35:24.197Z,1.27
2019-04-02T03:37:52.455Z,1.53
2019-04-02T03:40:20.728Z,1.20
2019-04-02T03:42:49.249Z,1.43
2019-04-02T03:45:17.524Z,4.10
2019-04-02T03:47:45.806Z,1.33
2019-04-02T03:50:15.389Z,0.97
2019-04-02T03:52:47.262Z,1.43
2019-04-02T03:55:14.791Z,0.83
2019-04-02T03:57:43.051Z,1.40
2019-04-02T04:00:11.592Z,2.47
2019-04-02T04:02:39.862Z,0.87
2019-04-02T04:05:08.135Z,1.63
2019-04-02T04:07:40.676Z,0.60
2019-04-02T04:10:06.867Z,1.80
2019-04-02T04:12:35.143Z,1.53
2019-04-02T04:15:03.662Z,0.70
2019-04-02T04:17:31.941Z,0.90
2019-04-02T04:20:00.284Z,0.90
2019-04-02T04:22:28.571Z,2.27
2019-04-02T04:24:57.291Z,1.27
2019-04-02T04:27:26.050Z,0.50
2019-04-02T04:29:54.375Z,0.90
2019-04-02T04:32:22.654Z,1.30
2019-04-02T04:34:50.917Z,3.40
2019-04-02T04:37:19.195Z,2.90
2019-04-02T04:39:49.160Z,3.33
2019-04-02T04:42:19.656Z,5.50
2019-04-02T04:44:47.743Z,3.60
2019-04-02T04:47:16.016Z,2.47
2019-04-02T04:49:44.287Z,2.40
2019-04-02T04:52:12.632Z,2.83
2019-04-02T04:54:40.895Z,3.57
2019-04-02T04:57:09.556Z,5.17
2019-04-02T04:59:37.892Z,4.73
2019-04-02T05:02:42.859Z,6.87
2019-04-02T05:05:11.477Z,5.33
2019-04-02T05:07:40.047Z,6.90
2019-04-02T05:10:08.649Z,8.00
2019-04-02T05:12:36.919Z,11.87
2019-04-02T05:15:06.171Z,5.83
2019-04-02T05:17:34.443Z,3.50
2019-04-02T05:20:02.704Z,4.63
2019-04-02T05:22:30.972Z,7.67
2019-04-02T05:24:59.236Z,5.40
2019-04-02T05:27:27.511Z,5.53
2019-04-02T05:29:55.765Z,3.23
2019-04-02T05:32:24.033Z,3.67
2019-04-02T05:34:52.303Z,8.67
2019-04-02T05:37:21.406Z,5.67
2019-04-02T05:39:50.674Z,11.20
2019-04-02T05:42:18.925Z,5.77
2019-04-02T05:44:47.199Z,8.57
2019-04-02T05:47:15.460Z,7.90
2019-04-02T05:49:43.730Z,7.87
2019-04-02T05:52:11.994Z,7.27
2019-04-02T05:54:40.270Z,6.87
2019-04-02T05:57:08.623Z,7.50
2019-04-02T05:59:37.557Z,5.30
2019-04-02T06:02:06.778Z,8.00
2019-04-02T06:04:35.050Z,6.23
2019-04-02T06:07:03.313Z,3.33
2019-04-02T06:09:31.669Z,2.97
2019-04-02T06:12:01.555Z,2.73
2019-04-02T06:14:30.167Z,3.07
2019-04-02T06:16:58.986Z,3.97
2019-04-02T06:19:27.581Z,3.43
2019-04-02T06:21:55.907Z,5.57
2019-04-02T06:24:25.322Z,2.70
2019-04-02T06:26:53.579Z,3.53
2019-04-02T06:29:21.846Z,2.27
2019-04-02T06:31:52.502Z,3.20
2019-04-02T06:34:20.099Z,4.93
2019-04-02T06:36:48.364Z,2.70
2019-04-02T06:39:18.022Z,3.73
2019-04-02T06:41:46.379Z,3.53
2019-04-02T06:44:14.759Z,3.83
2019-04-02T06:46:43.026Z,2.00
2019-04-02T06:49:29.279Z,4.03
2019-04-02T06:51:58.112Z,2.60
2019-04-02T06:54:27.908Z,3.43
2019-04-02T06:56:56.417Z,3.30
2019-04-02T06:59:24.659Z,1.43
2019-04-02T07:01:52.933Z,1.93
2019-04-02T07:04:21.187Z,3.63
2019-04-02T07:06:49.467Z,1.70
2019-04-02T07:09:17.722Z,3.23
2019-04-02T07:11:45.986Z,2.53
2019-04-02T07:14:14.247Z,3.27
2019-04-02T07:16:42.519Z,3.73
2019-04-02T07:19:10.771Z,1.87
2019-04-02T07:21:39.039Z,1.83
2019-04-02T07:24:08.139Z,2.90
2019-04-02T07:26:36.960Z,3.10
2019-04-02T07:29:05.303Z,1.70
2019-04-02T07:31:33.580Z,2.20
2019-04-02T07:34:03.042Z,2.77
2019-04-02T07:36:32.478Z,3.07
2019-04-02T07:39:01.766Z,2.70
2019-04-02T07:41:30.043Z,2.77
2019-04-02T07:43:58.622Z,2.27
2019-04-02T07:46:26.910Z,2.50
2019-04-02T07:48:56.670Z,3.00
2019-04-02T07:51:25.280Z,4.10
2019-04-02T07:53:54.427Z,2.53
2019-04-02T07:56:23.790Z,3.03
2019-04-02T07:58:52.055Z,1.53
2019-04-02T08:01:20.303Z,1.23
2019-04-02T08:03:48.573Z,3.63
2019-04-02T08:06:16.839Z,1.73
2019-04-02T08:08:45.098Z,2.80
2019-04-02T08:11:14.276Z,3.30
2019-04-02T08:13:42.916Z,1.77
2019-04-02T08:16:11.174Z,1.50
2019-04-02T08:18:39.450Z,3.33
2019-04-02T08:21:07.711Z,3.10
2019-04-02T08:23:35.982Z,2.77
2019-04-02T08:26:04.512Z,1.50
2019-04-02T08:28:32.783Z,2.47
2019-04-02T08:31:01.049Z,1.97
2019-04-02T08:33:29.309Z,2.23
2019-04-02T08:35:57.568Z,3.20
2019-04-02T08:38:25.834Z,2.60
2019-04-02T08:40:54.102Z,2.23
2019-04-02T08:43:22.366Z,2.33
2019-04-02T08:45:50.622Z,1.70
2019-04-02T08:48:18.891Z,1.70
2019-04-02T08:50:47.149Z,1.40
2019-04-02T08:53:15.983Z,1.63
2019-04-02T08:55:45.187Z,1.67
2019-04-02T08:58:13.739Z,1.93
2019-04-02T09:00:42.002Z,2.40
2019-04-02T09:03:29.723Z,1.33
2019-04-02T09:05:57.974Z,2.23
2019-04-02T09:08:28.954Z,1.30
2019-04-02T09:10:57.053Z,1.40
2019-04-02T09:13:25.371Z,1.17
2019-04-02T09:15:53.630Z,1.87
2019-04-02T09:18:21.899Z,1.87
2019-04-02T09:20:51.155Z,2.90
2019-04-02T09:23:19.423Z,1.83
2019-04-02T09:25:47.675Z,1.60
2019-04-02T09:28:15.930Z,1.37
2019-04-02T09:30:44.194Z,1.33
2019-04-02T09:33:12.453Z,1.93
2019-04-02T09:35:40.730Z,2.27
2019-04-02T09:38:08.990Z,2.63
2019-04-02T09:40:37.267Z,1.93
2019-04-02T09:43:05.519Z,1.90
2019-04-02T09:45:33.786Z,1.60
2019-04-02T09:48:02.041Z,1.83
2019-04-02T09:50:30.982Z,1.27
2019-04-02T09:52:59.557Z,1.87
2019-04-02T09:55:27.828Z,1.90
2019-04-02T09:57:56.416Z,1.07
2019-04-02T10:00:26.326Z,0.80
2019-04-02T10:02:54.575Z,1.00
2019-04-02T10:05:33.119Z,1.50
2019-04-02T10:07:52.831Z,1.27
2019-04-02T10:10:21.090Z,1.00
2019-04-02T10:12:50.657Z,1.43
2019-04-02T10:15:19.502Z,1.00
2019-04-02T10:17:48.433Z,0.80
2019-04-02T10:20:16.867Z,1.00
2019-04-02T10:22:45.135Z,1.20
2019-04-02T10:25:13.419Z,1.03
2019-04-02T10:27:41.664Z,1.77
2019-04-02T10:30:10.607Z,1.10
2019-04-02T10:32:38.935Z,1.40
2019-04-02T10:35:07.183Z,1.47
2019-04-02T10:37:35.635Z,0.93
2019-04-02T10:40:05.058Z,1.00
2019-04-02T10:42:33.331Z,0.87
2019-04-02T10:45:01.614Z,1.20
2019-04-02T10:47:30.823Z,1.10
2019-04-02T10:49:59.090Z,1.10
2019-04-02T10:52:27.688Z,1.10
2019-04-02T10:54:56.263Z,1.03
2019-04-02T10:57:24.531Z,1.27
2019-04-02T10:59:52.967Z,1.20
2019-04-02T11:02:21.260Z,1.13
2019-04-02T11:05:01.513Z,1.70
2019-04-02T11:07:19.556Z,1.00
2019-04-02T11:09:48.037Z,1.50
2019-04-02T11:12:16.746Z,1.00
2019-04-02T11:14:45.576Z,1.30
2019-04-02T11:17:13.854Z,1.10
2019-04-02T11:19:42.123Z,1.10
2019-04-02T11:22:10.386Z,0.97
2019-04-02T11:24:38.653Z,1.70
2019-04-02T11:27:08.089Z,1.00
2019-04-02T11:29:37.329Z,1.20
2019-04-02T11:32:05.608Z,0.83
2019-04-02T11:34:33.871Z,1.20
2019-04-02T11:37:14.290Z,1.60
2019-04-02T11:39:32.686Z,1.87
2019-04-02T11:42:00.948Z,1.87
2019-04-02T11:44:29.213Z,1.20
2019-04-02T11:46:57.476Z,0.90
2019-04-02T11:49:25.744Z,1.97
2019-04-02T11:51:54.007Z,1.20
2019-04-02T11:54:23.410Z,1.37
2019-04-02T11:56:52.215Z,1.00
2019-04-02T11:59:20.948Z,0.90
2019-04-02T12:01:49.202Z,1.40
2019-04-02T12:04:17.802Z,1.17
2019-04-02T12:06:46.063Z,0.90
2019-04-02T12:09:14.330Z,1.10
2019-04-02T12:11:43.163Z,0.80
2019-04-02T12:14:11.437Z,1.07
2019-04-02T12:16:39.777Z,1.33
2019-04-02T12:19:08.436Z,0.80
2019-04-02T12:21:36.911Z,0.97
2019-04-02T12:24:06.263Z,1.10
2019-04-02T12:26:34.518Z,1.10
2019-04-02T12:29:02.784Z,0.93
2019-04-02T12:31:31.037Z,1.97
2019-04-02T12:33:59.302Z,1.10
2019-04-02T12:36:27.557Z,1.20
2019-04-02T12:38:55.829Z,1.20
2019-04-02T12:41:24.099Z,1.30
2019-04-02T12:43:52.367Z,1.73
2019-04-02T12:46:20.630Z,1.23
2019-04-02T12:48:48.899Z,1.60
2019-04-02T12:51:17.166Z,1.23
2019-04-02T12:53:45.434Z,1.40
2019-04-02T12:56:13.696Z,1.30
2019-04-02T12:58:41.958Z,1.50
2019-04-02T13:01:10.223Z,1.60
2019-04-02T13:03:38.477Z,2.13
2019-04-02T13:06:06.739Z,2.00
2019-04-02T13:08:35.766Z,1.70
2019-04-02T13:11:04.318Z,1.90
2019-04-02T13:13:32.875Z,2.10
2019-04-02T13:16:01.135Z,2.17
2019-04-02T13:18:31.421Z,2.40
2019-04-02T13:20:59.378Z,3.30
2019-04-02T13:23:27.798Z,2.47
2019-04-02T13:25:56.643Z,2.33
2019-04-02T13:28:24.894Z,2.47
2019-04-02T13:30:53.171Z,3.03
2019-04-02T13:33:21.426Z,3.20
2019-04-02T13:35:50.171Z,2.90
2019-04-02T13:38:18.419Z,2.87
2019-04-02T13:40:46.682Z,2.97
2019-04-02T13:43:14.943Z,3.27
2019-04-02T13:45:43.782Z,3.77
2019-04-02T13:48:12.604Z,3.10
2019-04-02T13:50:40.870Z,4.00
2019-04-02T13:53:09.127Z,3.47
2019-04-02T13:55:37.407Z,3.90
2019-04-02T13:58:05.666Z,3.57
2019-04-02T14:00:52.257Z,4.03
2019-04-02T14:03:20.519Z,4.00
2019-04-02T14:05:48.793Z,4.47
2019-04-02T14:08:17.045Z,4.17
2019-04-02T14:10:45.346Z,4.30
2019-04-02T14:13:14.121Z,4.37
2019-04-02T14:15:42.446Z,4.40
2019-04-02T14:18:11.275Z,5.30
2019-04-02T14:20:39.534Z,5.00
2019-04-02T14:23:07.800Z,4.83
2019-04-02T14:25:36.215Z,4.40
2019-04-02T14:28:04.483Z,5.03
2019-04-02T14:30:32.767Z,5.17
2019-04-02T14:33:01.042Z,5.07
2019-04-02T14:35:31.885Z,5.93
2019-04-02T14:37:59.969Z,5.07
2019-04-02T14:40:28.220Z,4.53
2019-04-02T14:42:56.557Z,5.77
2019-04-02T14:45:24.816Z,4.80
2019-04-02T14:47:53.076Z,6.10
2019-04-02T14:50:30.233Z,6.37
2019-04-02T14:52:51.322Z,6.33
2019-04-02T14:55:19.584Z,6.43
2019-04-02T14:57:48.554Z,6.93
2019-04-02T15:00:18.051Z,6.77
2019-04-02T15:02:46.343Z,6.23
2019-04-02T15:05:14.602Z,6.60
2019-04-02T15:07:42.879Z,7.03
2019-04-02T15:10:11.155Z,7.23
2019-04-02T15:12:39.413Z,7.97
2019-04-02T15:15:07.678Z,7.53
2019-04-02T15:17:35.942Z,7.87
2019-04-02T15:20:05.643Z,7.60
2019-04-02T15:22:33.919Z,8.30
2019-04-02T15:25:02.183Z,7.80
2019-04-02T15:27:30.529Z,6.90
2019-04-02T15:29:58.792Z,8.13
2019-04-02T15:32:27.058Z,8.00
2019-04-02T15:34:55.320Z,8.30
2019-04-02T15:37:23.598Z,8.07
2019-04-02T15:39:51.851Z,8.83
2019-04-02T15:42:20.106Z,7.67
2019-04-02T15:44:48.375Z,8.10
2019-04-02T15:47:17.226Z,8.93
2019-04-02T15:49:45.495Z,8.33
2019-04-02T15:52:13.752Z,9.43
2019-04-02T15:54:42.019Z,8.83
2019-04-02T15:57:10.280Z,10.03
2019-04-02T15:59:38.534Z,9.23
2019-04-02T16:02:06.796Z,7.90
2019-04-02T16:04:35.068Z,8.37
2019-04-02T16:07:03.595Z,9.03
2019-04-02T16:09:31.864Z,8.70
2019-04-02T16:12:00.125Z,8.97
2019-04-02T16:14:28.395Z,8.80
2019-04-02T16:16:56.656Z,10.10
2019-04-02T16:19:25.386Z,9.10
2019-04-02T16:21:53.655Z,9.03
2019-04-02T16:24:22.241Z,8.70
2019-04-02T16:26:50.498Z,10.73
2019-04-02T16:29:19.338Z,10.40
2019-04-02T16:31:48.173Z,15.23
2019-04-02T16:34:16.907Z,16.30
2019-04-02T16:36:45.349Z,13.70
2019-04-02T16:39:14.287Z,9.97
2019-04-02T16:41:42.553Z,14.87
2019-04-02T16:44:11.731Z,10.87
2019-04-02T16:46:40.087Z,11.90
2019-04-02T16:49:08.428Z,10.23
2019-04-02T16:51:36.743Z,12.30
2019-04-02T16:54:05.026Z,10.93
2019-04-02T16:56:33.860Z,9.57
2019-04-02T16:59:02.126Z,10.53
2019-04-02T17:01:30.400Z,12.23
2019-04-02T17:03:58.658Z,9.33
2019-04-02T17:06:28.603Z,14.43
2019-04-02T17:08:56.910Z,9.40
2019-04-02T17:11:25.178Z,9.70
2019-04-02T17:13:53.444Z,13.53
2019-04-02T17:16:21.727Z,8.60
2019-04-02T17:18:50.065Z,10.80
2019-04-02T17:21:18.331Z,10.60
2019-04-02T17:23:46.586Z,10.00
2019-04-02T17:26:14.939Z,10.63
2019-04-02T17:28:43.367Z,11.17
2019-04-02T17:31:11.638Z,9.80
2019-04-02T17:33:39.900Z,12.50
2019-04-02T17:36:09.941Z,11.20
2019-04-02T17:38:38.150Z,9.43
2019-04-02T17:41:06.426Z,11.43
2019-04-02T17:43:34.700Z,11.47
2019-04-02T17:46:03.032Z,8.80
2019-04-02T17:48:31.299Z,10.30
2019-04-02T17:50:59.579Z,8.37
2019-04-02T17:53:27.853Z,8.27
2019-04-02T17:55:56.095Z,8.17
2019-04-02T17:58:24.377Z,11.33
2019-04-02T18:00:52.682Z,13.57
2019-04-02T18:03:20.956Z,11.70
2019-04-02T18:05:50.894Z,9.10
2019-04-02T18:08:19.206Z,11.37
2019-04-02T18:10:47.474Z,10.10
2019-04-02T18:13:15.734Z,8.80
2019-04-02T18:15:44.175Z,11.73
2019-04-02T18:18:12.451Z,8.50
2019-04-02T18:20:40.943Z,9.80
2019-04-02T18:23:09.201Z,9.37
2019-04-02T18:25:37.466Z,14.77
2019-04-02T18:28:05.735Z,10.20
2019-04-02T18:30:33.991Z,8.80
2019-04-02T18:33:02.277Z,8.07
2019-04-02T18:35:30.606Z,8.90
2019-04-02T18:38:00.009Z,10.30
2019-04-02T18:40:28.919Z,7.97
2019-04-02T18:42:57.235Z,10.63
2019-04-02T18:45:25.726Z,9.87
2019-04-02T18:47:53.995Z,9.00
2019-04-02T18:50:22.275Z,8.47
2019-04-02T18:52:51.847Z,7.63
2019-04-02T18:55:20.598Z,8.33
2019-04-02T18:57:48.847Z,8.00
2019-04-02T19:00:17.120Z,10.37
2019-04-02T19:02:45.374Z,9.63
2019-04-02T19:05:13.642Z,10.07
2019-04-02T19:07:41.895Z,7.77
2019-04-02T19:10:14.519Z,12.70
2019-04-02T19:12:40.164Z,10.43
2019-04-02T19:15:08.509Z,8.70
2019-04-02T19:17:36.787Z,10.23
2019-04-02T19:20:09.341Z,12.23
2019-04-02T19:22:37.618Z,10.20
2019-04-02T19:25:06.931Z,9.20
2019-04-02T19:27:37.017Z,12.43
2019-04-02T19:30:06.494Z,10.30
2019-04-02T19:32:35.599Z,8.33
2019-04-02T19:35:04.922Z,7.70
2019-04-02T19:37:33.762Z,11.67
2019-04-02T19:40:02.030Z,8.37
2019-04-02T19:42:30.568Z,8.57
2019-04-02T19:44:58.839Z,11.23
2019-04-02T19:47:28.071Z,7.60
2019-04-02T19:49:57.913Z,9.73
2019-04-02T19:52:27.709Z,12.17
2019-04-02T19:54:56.227Z,8.33
2019-04-02T19:57:25.058Z,10.43
2019-04-02T19:59:53.307Z,7.37
2019-04-02T20:02:22.244Z,8.97
2019-04-02T20:04:50.497Z,6.90
2019-04-02T20:07:18.763Z,9.20
2019-04-02T20:09:47.037Z,7.07
2019-04-02T20:12:15.358Z,10.97
2019-04-02T20:14:43.628Z,7.83
2019-04-02T20:17:11.894Z,9.70
2019-04-02T20:19:40.150Z,8.90
2019-04-02T20:22:08.462Z,8.13
2019-04-02T20:24:36.719Z,8.13
2019-04-02T20:27:04.983Z,7.33
2019-04-02T20:29:33.256Z,9.53
2019-04-02T20:32:01.525Z,6.43
2019-04-02T20:34:29.830Z,8.47
2019-04-02T20:36:58.158Z,8.73
2019-04-02T20:39:27.650Z,6.83
2019-04-02T20:41:58.630Z,7.80
2019-04-02T20:44:28.966Z,8.20
2019-04-02T20:46:56.374Z,7.80
2019-04-02T20:49:24.638Z,7.50
2019-04-02T20:51:52.912Z,7.50
2019-04-02T20:54:22.200Z,10.03
2019-04-02T20:56:52.311Z,8.73
2019-04-02T20:59:23.217Z,9.10
2019-04-02T21:01:53.749Z,7.60
2019-04-02T21:04:21.747Z,8.57
2019-04-02T21:06:50.977Z,7.37
2019-04-02T21:09:23.577Z,6.87
2019-04-02T21:11:49.291Z,7.90
2019-04-02T21:14:23.262Z,8.37
2019-04-02T21:16:47.917Z,8.60
2019-04-02T21:19:16.214Z,9.70
2019-04-02T21:21:47.514Z,10.00
2019-04-02T21:24:14.547Z,9.93
2019-04-02T21:26:45.713Z,10.43
2019-04-02T21:29:14.455Z,7.47
2019-04-02T21:31:42.863Z,7.20
2019-04-02T21:34:11.131Z,8.27
2019-04-02T21:36:39.399Z,10.63
2019-04-02T21:39:08.290Z,7.87
2019-04-02T21:41:36.596Z,9.53
2019-04-02T21:44:05.130Z,9.27
2019-04-02T21:46:33.938Z,9.23
2019-04-02T21:49:02.210Z,10.27
2019-04-02T21:51:30.467Z,7.80
2019-04-02T21:53:58.743Z,9.90
2019-04-02T21:56:27.003Z,8.03
2019-04-02T21:58:55.274Z,9.97
2019-04-02T22:01:23.536Z,9.10
2019-04-02T22:03:51.794Z,8.87
2019-04-02T22:06:20.058Z,9.73
2019-04-02T22:08:48.338Z,9.27
2019-04-02T22:11:16.612Z,8.50
2019-04-02T22:13:44.887Z,8.50
2019-04-02T22:16:13.329Z,8.53
2019-04-02T22:18:43.176Z,7.93
2019-04-02T22:21:13.049Z,7.77
2019-04-02T22:23:43.205Z,9.83
2019-04-02T22:26:13.380Z,8.10
2019-04-02T22:28:42.107Z,9.30
2019-04-02T22:31:10.383Z,7.53
2019-04-02T22:33:38.635Z,8.57
2019-04-02T22:36:06.911Z,10.67
2019-04-02T22:38:35.168Z,8.17
2019-04-02T22:41:03.436Z,7.97
2019-04-02T22:43:32.035Z,7.30
2019-04-02T22:46:00.303Z,9.20
2019-04-02T22:48:28.886Z,7.90
2019-04-02T22:50:57.155Z,8.50
2019-04-02T22:53:26.757Z,7.90
2019-04-02T22:55:55.879Z,8.40
2019-04-02T22:58:24.125Z,8.63
2019-04-02T23:00:52.408Z,8.93
2019-04-02T23:03:20.697Z,9.17
2019-04-02T23:05:49.016Z,8.03
2019-04-02T23:08:17.278Z,8.27
2019-04-02T23:10:45.548Z,7.53
2019-04-02T23:13:14.475Z,7.17
2019-04-02T23:15:42.758Z,9.03
2019-04-02T23:18:11.019Z,7.97
2019-04-02T23:20:39.284Z,8.20
2019-04-02T23:23:07.622Z,9.70
2019-04-02T23:25:35.904Z,7.97
2019-04-02T23:28:04.170Z,7.87
2019-04-02T23:30:32.474Z,8.97
2019-04-02T23:33:00.797Z,7.60
2019-04-02T23:35:29.053Z,7.20
2019-04-02T23:37:59.046Z,7.43
2019-04-02T23:40:27.976Z,7.83
2019-04-02T23:42:56.233Z,7.87
2019-04-02T23:45:24.498Z,7.27
2019-04-02T23:47:52.759Z,8.50
2019-04-02T23:50:21.030Z,9.23
2019-04-02T23:52:50.481Z,8.17
2019-04-02T23:55:18.821Z,9.50
2019-04-02T23:57:47.112Z,8.93
